메인 페이지
METAR-TAF:

METAR-TAF

공항 :

리우데자네이루 갈레앙 국제공항, 리우데자네이루, 브라질

위도: 22-49S, 경도: 043-15W, 고도: 6m

현재 날씨관측

예보는 19분 전, 22:00시(UTC)에 발표되었습니다.
남남동4kt
온도 28°C
습도 66%
기압 1011 hPa
시정 10km 이상
1500m 미만 상공 구름 및 적란운 없음

METAR: SBGL 022200Z 15004KT CAVOK 28/21 Q1011

시각: 19:19 (22:19 UTC)

예보

예보는 6 시간 19분 전, 16:00시(UTC)에 발표되었습니다.
예보 대상 시간: 02일 18시부터 03일 24시까지 (UTC)
남동10kt
시정 10km 이상
고도 2500ft 상공 구름 조금
전환 중
02일 21시부터 02일 23시까지 (UTC)
7kt
전환 중
03일 03시부터 03일 06시까지 (UTC)
북북서5kt
전환 중
03일 09시부터 03일 12시까지 (UTC)
5kt
전환 중
03일 14시부터 03일 17시까지 (UTC)
남동12kt
전환 중
03일 21시부터 03일 23시까지 (UTC)
7kt

TAF: SBGL 021600Z 0218/0324 13010KT 9999 FEW025 TN23/0308Z TX33/0316Z BECMG 0221/0223 10007KT BECMG 0303/0306 33005KT BECMG 0309/0312 01005KT BECMG 0314/0317 14012KT BECMG 0321/0323 10007KT RMK PHC

4,000개 이상의 공항 관측 자료 및 예보 (METAR 및 TAF 보고).

지도상에서 검색 가능한 기상관측소가 노란 점과 빨간 점으로 표시되어 있습니다.

기상관측소 명을 보려면 표시 위로 마우스를 이동하세요.

날씨 관측과 예보를 보려면 클릭하세요.

지도 변경 : 확대하려면 엑스 표시가 있는 녹색 버튼, 축소하려면 빼기 표시가 있는 녹색 버튼, 다음 페이지의 지도를 보려면 녹색 화살표를 클릭하세요.


METAR-TAF: